Time;durP1;ratioP1;P1;durP2;ratioP2;P2;SDS_P1;SDS_P2;PMS_P1;PMS_P2;Temp;Humidity;BMP_temperature;BMP_pressure;BME280_temperature;BME280_humidity;BME280_pressure;Samples;Min_cycle;Max_cycle;Signal;HPM_P1;HPM_P2
2023/07/17 00:02:26;;;;;;;3.70;3.43;;;;;;;;;;5019830;28;20496;-59
2023/07/17 00:04:52;;;;;;;4.37;2.90;;;;;;;;;;5015487;28;20446;-59
2023/07/17 00:07:18;;;;;;;4.40;3.00;;;;;;;;;;5015292;28;20422;-59
2023/07/17 00:09:44;;;;;;;2.93;2.63;;;;;;;;;;5014367;28;20438;-59
2023/07/17 00:12:10;;;;;;;3.23;2.97;;;;;;;;;;5015084;28;20918;-59
2023/07/17 00:14:36;;;;;;;3.53;3.30;;;;;;;;;;5015235;28;20449;-59
2023/07/17 00:17:02;;;;;;;14.00;3.47;;;;;;;;;;5015313;28;20478;-59
2023/07/17 00:19:29;;;;;;;4.70;3.17;;;;;;;;;;5015258;28;20434;-59
2023/07/17 00:21:55;;;;;;;3.40;3.20;;;;;;;;;;5015585;28;20490;-60
2023/07/17 00:24:21;;;;;;;2.83;2.53;;;;;;;;;;5014980;28;20457;-58
2023/07/17 00:26:49;;;;;;;3.57;3.27;;;;;;;;;;5015039;28;20417;-59
2023/07/17 00:29:23;;;;;;;3.03;2.73;;;;;;;;;;5014664;28;20938;-58
2023/07/17 00:31:49;;;;;;;2.50;2.40;;;;;;;;;;5015040;28;20416;-58
2023/07/17 00:34:15;;;;;;;3.13;2.83;;;;;;;;;;5014735;28;20442;-59
2023/07/17 00:36:43;;;;;;;9.60;2.90;;;;;;;;;;5014687;28;20424;-59
2023/07/17 00:39:10;;;;;;;3.50;2.80;;;;;;;;;;5014744;28;20443;-58
2023/07/17 00:41:38;;;;;;;3.80;3.57;;;;;;;;;;5014478;28;20497;-58
2023/07/17 00:44:04;;;;;;;4.97;3.30;;;;;;;;;;5014810;28;20472;-58
2023/07/17 00:46:34;;;;;;;3.87;3.40;;;;;;;;;;5014577;28;20909;-59
2023/07/17 00:49:00;;;;;;;6.10;2.70;;;;;;;;;;5014497;28;20929;-59
2023/07/17 00:51:27;;;;;;;5.50;3.30;;;;;;;;;;5014476;28;20432;-58
2023/07/17 00:53:53;;;;;;;13.40;3.40;;;;;;;;;;5014500;28;20426;-57
2023/07/17 00:56:19;;;;;;;3.70;3.40;;;;;;;;;;5014537;28;20407;-58
2023/07/17 00:58:45;;;;;;;4.60;3.47;;;;;;;;;;5014375;28;20766;-58
2023/07/17 01:01:14;;;;;;;5.47;3.40;;;;;;;;;;5014384;28;20505;-58
2023/07/17 01:03:40;;;;;;;3.60;3.23;;;;;;;;;;5014269;28;20530;-59
2023/07/17 01:06:08;;;;;;;9.73;3.40;;;;;;;;;;5014357;28;20496;-58
2023/07/17 01:08:40;;;;;;;3.13;2.93;;;;;;;;;;5014231;28;20414;-58
2023/07/17 01:11:06;;;;;;;3.80;2.93;;;;;;;;;;5014135;28;20456;-59
2023/07/17 01:13:42;;;;;;;4.47;3.20;;;;;;;;;;5014095;28;20950;-59
2023/07/17 01:16:08;;;;;;;6.87;3.33;;;;;;;;;;5013147;28;20505;-58
2023/07/17 01:18:37;;;;;;;3.17;3.00;;;;;;;;;;5014070;28;20894;-59
2023/07/17 01:21:03;;;;;;;6.80;3.30;;;;;;;;;;5013711;28;20413;-58
2023/07/17 01:23:29;;;;;;;3.10;2.90;;;;;;;;;;5014170;28;20947;-58
2023/07/17 01:25:55;;;;;;;5.23;3.27;;;;;;;;;;5013984;28;20901;-58
2023/07/17 01:28:21;;;;;;;4.60;3.10;;;;;;;;;;5013909;28;20422;-58
2023/07/17 01:30:47;;;;;;;12.87;3.07;;;;;;;;;;5012383;28;20994;-59
2023/07/17 01:33:13;;;;;;;6.30;3.50;;;;;;;;;;5013765;28;20413;-59
2023/07/17 01:35:39;;;;;;;6.07;3.47;;;;;;;;;;5013581;28;20483;-59
2023/07/17 01:38:06;;;;;;;9.47;2.80;;;;;;;;;;5013758;28;20414;-58
2023/07/17 01:40:32;;;;;;;11.07;3.60;;;;;;;;;;5013687;28;20417;-59
2023/07/17 01:42:58;;;;;;;3.60;3.30;;;;;;;;;;5013600;28;21026;-59
2023/07/17 01:45:24;;;;;;;4.03;3.27;;;;;;;;;;5013565;28;20773;-59
2023/07/17 01:47:50;;;;;;;6.53;3.50;;;;;;;;;;5013643;28;20397;-58
2023/07/17 01:50:18;;;;;;;3.40;3.20;;;;;;;;;;5011860;28;20520;-59
2023/07/17 01:52:44;;;;;;;4.03;2.90;;;;;;;;;;5013201;28;20809;-59
2023/07/17 01:55:10;;;;;;;3.70;3.50;;;;;;;;;;5012489;28;20444;-58
2023/07/17 01:57:36;;;;;;;3.80;3.40;;;;;;;;;;5012883;28;20921;-59
2023/07/17 02:00:04;;;;;;;6.47;3.43;;;;;;;;;;5013196;28;20472;-59
2023/07/17 02:02:30;;;;;;;6.00;3.80;;;;;;;;;;5013098;28;20470;-58
2023/07/17 02:04:56;;;;;;;4.37;3.23;;;;;;;;;;5013149;28;20460;-59
2023/07/17 02:07:22;;;;;;;7.03;3.60;;;;;;;;;;5013583;28;20484;-59
2023/07/17 02:09:51;;;;;;;4.40;3.10;;;;;;;;;;5013046;28;20441;-59
2023/07/17 02:12:16;;;;;;;7.67;3.47;;;;;;;;;;5013314;28;20397;-59
2023/07/17 02:14:45;;;;;;;3.73;3.50;;;;;;;;;;5013116;28;20440;-59
2023/07/17 02:17:11;;;;;;;4.43;3.37;;;;;;;;;;5013132;28;20431;-59
2023/07/17 02:19:37;;;;;;;3.87;3.57;;;;;;;;;;5013077;28;20413;-59
2023/07/17 02:22:03;;;;;;;5.03;3.27;;;;;;;;;;5012717;28;20464;-59
2023/07/17 02:24:32;;;;;;;8.30;3.50;;;;;;;;;;5013244;28;20458;-58
2023/07/17 02:26:58;;;;;;;4.20;3.47;;;;;;;;;;5013075;28;20517;-58
2023/07/17 02:29:25;;;;;;;3.37;2.90;;;;;;;;;;5012945;28;20441;-59
2023/07/17 02:31:53;;;;;;;7.40;3.33;;;;;;;;;;5012806;28;20417;-59
2023/07/17 02:34:20;;;;;;;12.10;3.97;;;;;;;;;;5012259;28;20890;-59
2023/07/17 02:36:46;;;;;;;7.10;3.30;;;;;;;;;;5012896;28;20772;-59
2023/07/17 02:39:12;;;;;;;4.60;3.77;;;;;;;;;;5012476;28;20428;-59
2023/07/17 02:41:38;;;;;;;6.30;3.27;;;;;;;;;;5012501;28;20465;-58
2023/07/17 02:44:04;;;;;;;3.13;2.93;;;;;;;;;;5012722;28;20434;-59
2023/07/17 02:46:30;;;;;;;4.90;4.00;;;;;;;;;;5012446;28;20438;-59
2023/07/17 02:49:03;;;;;;;5.13;3.67;;;;;;;;;;5012513;28;20798;-59
2023/07/17 02:51:29;;;;;;;3.67;3.33;;;;;;;;;;5012729;28;20473;-59
2023/07/17 02:53:55;;;;;;;8.33;3.43;;;;;;;;;;5012629;28;20500;-58
2023/07/17 02:56:23;;;;;;;5.13;3.33;;;;;;;;;;5012714;28;20422;-59
2023/07/17 02:58:49;;;;;;;9.23;3.30;;;;;;;;;;5011122;28;20470;-55
2023/07/17 03:01:15;;;;;;;4.20;3.90;;;;;;;;;;5012641;28;20504;-58
2023/07/17 03:03:41;;;;;;;7.03;3.23;;;;;;;;;;5012286;28;20470;-59
2023/07/17 03:06:09;;;;;;;4.63;3.33;;;;;;;;;;5012488;28;20430;-59
2023/07/17 03:08:35;;;;;;;5.87;3.17;;;;;;;;;;5012583;28;20449;-59
2023/07/17 03:11:04;;;;;;;4.03;3.63;;;;;;;;;;5012543;28;20440;-59
2023/07/17 03:13:30;;;;;;;5.10;3.40;;;;;;;;;;5012518;28;20427;-59
2023/07/17 03:15:59;;;;;;;7.50;4.00;;;;;;;;;;5011403;28;20549;-59
2023/07/17 03:18:27;;;;;;;7.50;4.23;;;;;;;;;;5012322;28;20842;-58
2023/07/17 03:20:56;;;;;;;4.93;3.50;;;;;;;;;;5012419;28;20740;-59
2023/07/17 03:23:22;;;;;;;5.10;3.93;;;;;;;;;;5012553;28;20472;-59
2023/07/17 03:25:48;;;;;;;5.80;3.37;;;;;;;;;;5012258;28;20434;-59
2023/07/17 03:28:14;;;;;;;6.23;4.63;;;;;;;;;;5012326;28;20440;-59
2023/07/17 03:30:40;;;;;;;6.23;4.90;;;;;;;;;;5012230;28;20489;-59
2023/07/17 03:33:06;;;;;;;5.70;3.70;;;;;;;;;;5011996;28;20429;-59
2023/07/17 03:35:36;;;;;;;3.90;3.70;;;;;;;;;;5012364;28;20548;-59
2023/07/17 03:38:03;;;;;;;5.17;3.97;;;;;;;;;;5012054;28;20911;-59
2023/07/17 03:40:29;;;;;;;5.23;3.70;;;;;;;;;;5010926;28;20499;-59
2023/07/17 03:42:55;;;;;;;6.67;4.20;;;;;;;;;;5012145;28;20811;-59
2023/07/17 03:45:21;;;;;;;5.87;4.00;;;;;;;;;;5014329;28;20416;-59
2023/07/17 03:47:47;;;;;;;3.80;3.50;;;;;;;;;;5015771;28;20950;-59
2023/07/17 03:50:13;;;;;;;5.70;3.90;;;;;;;;;;5015466;28;20454;-59
2023/07/17 03:52:39;;;;;;;9.10;3.67;;;;;;;;;;5016065;28;20424;-59
2023/07/17 03:55:05;;;;;;;7.40;4.07;;;;;;;;;;5015792;28;20480;-59
2023/07/17 03:57:31;;;;;;;8.20;4.20;;;;;;;;;;5015592;28;20467;-59
2023/07/17 03:59:59;;;;;;;6.57;4.03;;;;;;;;;;5015319;28;20827;-59
2023/07/17 04:02:25;;;;;;;48.83;33.37;;;;;;;;;;5015197;28;20499;-59
2023/07/17 04:04:51;;;;;;;10.93;5.50;;;;;;;;;;5015501;28;20920;-60
2023/07/17 04:07:17;;;;;;;7.13;6.37;;;;;;;;;;5015246;28;20427;-59
2023/07/17 04:09:43;;;;;;;4.00;3.70;;;;;;;;;;5015330;28;20497;-59
2023/07/17 04:12:09;;;;;;;6.23;4.43;;;;;;;;;;5015228;28;20449;-59
2023/07/17 04:14:35;;;;;;;4.80;3.63;;;;;;;;;;5013986;28;20424;-59
2023/07/17 04:17:03;;;;;;;5.10;4.47;;;;;;;;;;5015074;28;20447;-59
2023/07/17 04:19:30;;;;;;;4.90;4.40;;;;;;;;;;5014886;28;20412;-59
2023/07/17 04:21:56;;;;;;;4.30;3.87;;;;;;;;;;5014827;28;20469;-59
2023/07/17 04:24:23;;;;;;;4.03;3.67;;;;;;;;;;5013458;28;20433;-59
2023/07/17 04:26:50;;;;;;;2.97;2.87;;;;;;;;;;5015067;28;20525;-58
2023/07/17 04:29:16;;;;;;;4.23;3.60;;;;;;;;;;5015170;28;20413;-58
2023/07/17 04:31:42;;;;;;;13.00;6.83;;;;;;;;;;5013515;28;20445;-59
2023/07/17 04:34:11;;;;;;;7.07;4.83;;;;;;;;;;5014793;28;20429;-58
2023/07/17 04:36:37;;;;;;;5.63;4.03;;;;;;;;;;5014880;28;20447;-59
2023/07/17 04:39:05;;;;;;;6.77;3.87;;;;;;;;;;5014812;28;20472;-59
2023/07/17 04:41:31;;;;;;;6.40;4.20;;;;;;;;;;5014669;28;20440;-59
2023/07/17 04:43:57;;;;;;;7.10;3.40;;;;;;;;;;5014852;28;20430;-59
2023/07/17 04:46:25;;;;;;;8.10;3.87;;;;;;;;;;5014462;28;20438;-59
2023/07/17 04:48:54;;;;;;;8.00;4.80;;;;;;;;;;5014821;28;20398;-59
2023/07/17 04:51:20;;;;;;;5.30;4.07;;;;;;;;;;5014221;28;20421;-59
2023/07/17 04:53:47;;;;;;;5.53;4.23;;;;;;;;;;5014455;28;20410;-59
2023/07/17 04:56:13;;;;;;;8.63;4.50;;;;;;;;;;5013681;28;20437;-59
2023/07/17 04:58:38;;;;;;;148.87;126.00;;;;;;;;;;5014260;28;20424;-59
2023/07/17 05:01:05;;;;;;;12.50;5.20;;;;;;;;;;5014397;28;20458;-59
2023/07/17 05:03:31;;;;;;;6.93;3.70;;;;;;;;;;5014086;28;20510;-59
2023/07/17 05:06:00;;;;;;;7.90;3.83;;;;;;;;;;5014353;28;20423;-59
2023/07/17 05:08:29;;;;;;;8.70;3.77;;;;;;;;;;5014900;28;20459;-59
2023/07/17 05:10:58;;;;;;;4.07;3.23;;;;;;;;;;5013934;28;20848;-59
2023/07/17 05:13:24;;;;;;;4.17;3.73;;;;;;;;;;5014183;28;20409;-59
2023/07/17 05:15:51;;;;;;;4.30;3.87;;;;;;;;;;5014361;28;20837;-59
2023/07/17 05:18:17;;;;;;;6.00;3.47;;;;;;;;;;5014058;28;20877;-59
2023/07/17 05:20:46;;;;;;;6.57;3.90;;;;;;;;;;5013494;28;20421;-59
2023/07/17 05:23:12;;;;;;;5.63;3.67;;;;;;;;;;5013968;28;20481;-59
2023/07/17 05:25:38;;;;;;;9.57;4.10;;;;;;;;;;5013568;28;20409;-59
2023/07/17 05:28:04;;;;;;;48.77;30.63;;;;;;;;;;5013750;28;20418;-57
2023/07/17 05:30:34;;;;;;;93.07;51.50;;;;;;;;;;5013793;28;20849;-57
2023/07/17 05:33:00;;;;;;;180.97;102.60;;;;;;;;;;5012301;28;20433;-58
2023/07/17 05:35:26;;;;;;;24.93;14.93;;;;;;;;;;5012429;28;20415;-58
2023/07/17 05:37:53;;;;;;;14.07;9.10;;;;;;;;;;5014022;28;20443;-59
2023/07/17 05:40:20;;;;;;;30.10;18.50;;;;;;;;;;5013785;28;20426;-58
2023/07/17 05:42:45;;;;;;;13.53;9.30;;;;;;;;;;5013122;28;20952;-58
2023/07/17 05:45:11;;;;;;;8.17;5.23;;;;;;;;;;5013607;28;20414;-57
2023/07/17 05:47:38;;;;;;;5.40;4.83;;;;;;;;;;5012265;28;20455;-57
2023/07/17 05:50:04;;;;;;;9.90;6.70;;;;;;;;;;5013478;28;20827;-58
2023/07/17 05:52:30;;;;;;;4.03;3.00;;;;;;;;;;5013131;28;20428;-59
2023/07/17 05:54:56;;;;;;;4.87;3.07;;;;;;;;;;5013417;28;20825;-59
2023/07/17 05:57:22;;;;;;;5.70;3.97;;;;;;;;;;5012169;28;20454;-58
2023/07/17 05:59:48;;;;;;;5.77;3.90;;;;;;;;;;5012138;28;20723;-59
2023/07/17 06:02:15;;;;;;;10.03;4.00;;;;;;;;;;5012049;28;21077;-58
2023/07/17 06:04:41;;;;;;;4.63;3.50;;;;;;;;;;5011355;28;20815;-58
2023/07/17 06:07:07;;;;;;;3.60;3.37;;;;;;;;;;5012164;28;20503;-58
2023/07/17 06:09:35;;;;;;;13.20;4.07;;;;;;;;;;5010753;28;20501;-57
2023/07/17 06:12:01;;;;;;;3.37;3.10;;;;;;;;;;5012818;28;20427;-57
2023/07/17 06:14:27;;;;;;;8.87;3.07;;;;;;;;;;5012832;28;20443;-56
2023/07/17 06:16:53;;;;;;;5.80;3.40;;;;;;;;;;5012906;28;20438;-57
2023/07/17 06:19:22;;;;;;;8.47;3.40;;;;;;;;;;5011834;28;20477;-57
2023/07/17 06:21:48;;;;;;;6.40;3.60;;;;;;;;;;5012179;28;20459;-57
2023/07/17 06:24:14;;;;;;;4.70;3.07;;;;;;;;;;5011915;28;20416;-56
2023/07/17 06:26:42;;;;;;;5.50;3.30;;;;;;;;;;5012144;28;20414;-57
2023/07/17 06:29:10;;;;;;;9.10;3.50;;;;;;;;;;5012137;28;20918;-56
2023/07/17 06:31:36;;;;;;;5.53;3.50;;;;;;;;;;5011931;28;20412;-55
2023/07/17 06:34:03;;;;;;;3.73;3.43;;;;;;;;;;5012688;28;20488;-57
2023/07/17 06:36:30;;;;;;;5.67;3.23;;;;;;;;;;5012859;28;20970;-57
2023/07/17 06:38:56;;;;;;;5.47;3.80;;;;;;;;;;5012833;28;20407;-57
2023/07/17 06:41:22;;;;;;;8.37;3.77;;;;;;;;;;5012743;28;20415;-57
2023/07/17 06:43:48;;;;;;;4.27;3.40;;;;;;;;;;5012500;28;20477;-57
2023/07/17 06:46:14;;;;;;;6.50;3.90;;;;;;;;;;5012687;28;20503;-56
2023/07/17 06:48:41;;;;;;;4.57;3.47;;;;;;;;;;5012859;28;20527;-57
2023/07/17 06:51:09;;;;;;;8.00;4.30;;;;;;;;;;5010569;28;20418;-58
2023/07/17 06:53:35;;;;;;;4.60;4.00;;;;;;;;;;5012221;28;20435;-57
2023/07/17 06:56:03;;;;;;;4.63;3.23;;;;;;;;;;5013045;28;20465;-56
2023/07/17 06:58:29;;;;;;;7.93;3.93;;;;;;;;;;5012462;28;20434;-57
2023/07/17 07:00:58;;;;;;;3.83;3.50;;;;;;;;;;5013030;28;20455;-57
2023/07/17 07:03:27;;;;;;;13.83;4.20;;;;;;;;;;5012325;28;20851;-56
2023/07/17 07:05:55;;;;;;;4.20;3.20;;;;;;;;;;5012113;28;20419;-57
2023/07/17 07:08:22;;;;;;;5.60;3.40;;;;;;;;;;5012275;28;20521;-57
2023/07/17 07:10:50;;;;;;;4.77;3.60;;;;;;;;;;5023516;28;20961;-58
2023/07/17 07:13:16;;;;;;;7.27;3.80;;;;;;;;;;5031808;28;20589;-58
2023/07/17 07:15:42;;;;;;;14.23;4.37;;;;;;;;;;5032238;28;20944;-57
2023/07/17 07:18:08;;;;;;;10.63;3.73;;;;;;;;;;5031757;28;20442;-57
2023/07/17 07:20:34;;;;;;;5.23;3.60;;;;;;;;;;5034957;28;20425;-57
2023/07/17 07:23:00;;;;;;;5.67;4.03;;;;;;;;;;5035764;28;20479;-56
2023/07/17 07:25:28;;;;;;;6.03;4.03;;;;;;;;;;5035766;28;20410;-57
2023/07/17 07:27:54;;;;;;;5.23;3.33;;;;;;;;;;5035628;28;20488;-57
2023/07/17 07:30:20;;;;;;;4.17;3.30;;;;;;;;;;5034297;28;20419;-56
2023/07/17 07:32:49;;;;;;;4.50;3.40;;;;;;;;;;5026507;28;20451;-57
2023/07/17 07:35:15;;;;;;;11.13;4.40;;;;;;;;;;5015728;28;20970;-57
2023/07/17 07:37:41;;;;;;;5.43;3.87;;;;;;;;;;5015685;28;20444;-57
2023/07/17 07:40:10;;;;;;;7.67;4.00;;;;;;;;;;5015526;28;20472;-56
2023/07/17 07:42:36;;;;;;;4.37;3.97;;;;;;;;;;5015505;28;20813;-56
2023/07/17 07:45:02;;;;;;;11.77;3.70;;;;;;;;;;5015519;28;20434;-57
2023/07/17 07:47:30;;;;;;;4.93;4.43;;;;;;;;;;5015498;28;20469;-58
2023/07/17 07:49:58;;;;;;;5.10;4.00;;;;;;;;;;5015404;28;20470;-57
2023/07/17 07:52:24;;;;;;;6.40;3.67;;;;;;;;;;5015471;28;20882;-57
2023/07/17 07:54:50;;;;;;;7.67;3.63;;;;;;;;;;5015339;28;20538;-57
2023/07/17 07:57:16;;;;;;;4.93;3.37;;;;;;;;;;5015253;28;20415;-58
2023/07/17 07:59:42;;;;;;;4.93;3.97;;;;;;;;;;5015219;28;20444;-57
2023/07/17 08:02:08;;;;;;;4.53;3.80;;;;;;;;;;5014971;28;20460;-59
2023/07/17 08:04:34;;;;;;;4.90;4.23;;;;;;;;;;5014534;28;20454;-58
2023/07/17 08:07:00;;;;;;;9.77;4.27;;;;;;;;;;5014801;28;20563;-58
2023/07/17 08:09:27;;;;;;;7.10;5.10;;;;;;;;;;5014967;28;20516;-57
2023/07/17 08:11:55;;;;;;;5.43;4.10;;;;;;;;;;5026520;28;20419;-59
2023/07/17 08:14:21;;;;;;;4.27;3.87;;;;;;;;;;5034980;28;20929;-58
2023/07/17 08:16:50;;;;;;;5.97;5.47;;;;;;;;;;5034729;28;20407;-58
2023/07/17 08:19:17;;;;;;;4.90;4.50;;;;;;;;;;5034931;28;20410;-58
2023/07/17 08:21:43;;;;;;;5.60;4.70;;;;;;;;;;5034379;28;20814;-58
2023/07/17 08:24:12;;;;;;;5.53;4.80;;;;;;;;;;5034222;28;20479;-58
2023/07/17 08:26:40;;;;;;;4.30;4.00;;;;;;;;;;5034107;28;20462;-57
2023/07/17 08:29:11;;;;;;;4.93;4.63;;;;;;;;;;5034319;28;20422;-57
2023/07/17 08:31:37;;;;;;;5.17;4.67;;;;;;;;;;5032560;28;20447;-58
2023/07/17 08:34:06;;;;;;;4.97;4.63;;;;;;;;;;5034098;28;20469;-57
2023/07/17 08:36:32;;;;;;;7.57;5.53;;;;;;;;;;5034172;28;20436;-58
2023/07/17 08:38:58;;;;;;;7.47;4.78;;;;;;;;;;5033573;28;20398;-57
2023/07/17 08:41:26;;;;;;;7.40;5.10;;;;;;;;;;5034364;28;20827;-57
2023/07/17 08:43:53;;;;;;;8.00;5.27;;;;;;;;;;5032655;28;20509;-57
2023/07/17 08:46:22;;;;;;;10.30;4.60;;;;;;;;;;5033950;28;20454;-58
2023/07/17 08:48:48;;;;;;;9.10;5.50;;;;;;;;;;5034100;28;20510;-58
2023/07/17 08:51:15;;;;;;;7.07;5.33;;;;;;;;;;5033695;28;20416;-58
2023/07/17 08:53:46;;;;;;;6.30;5.17;;;;;;;;;;5033693;28;20751;-59
2023/07/17 08:56:12;;;;;;;10.73;5.53;;;;;;;;;;5033811;28;20410;-59
2023/07/17 08:58:41;;;;;;;13.50;5.10;;;;;;;;;;5033589;28;20807;-58
2023/07/17 09:01:07;;;;;;;15.17;5.70;;;;;;;;;;5033936;28;20415;-58
2023/07/17 09:03:36;;;;;;;7.47;5.53;;;;;;;;;;5033083;28;20952;-58
2023/07/17 09:06:02;;;;;;;8.27;5.47;;;;;;;;;;5033985;28;20933;-57
2023/07/17 09:08:28;;;;;;;6.07;5.43;;;;;;;;;;5033575;28;20409;-59
2023/07/17 09:11:01;;;;;;;8.87;5.80;;;;;;;;;;5033878;28;20439;-57
2023/07/17 09:13:35;;;;;;;6.03;4.70;;;;;;;;;;5033338;28;20451;-59
2023/07/17 09:16:23;;;;;;;5.70;5.23;;;;;;;;;;5033729;28;20437;-57
2023/07/17 09:18:50;;;;;;;11.30;5.40;;;;;;;;;;5033722;28;20937;-58
2023/07/17 09:21:18;;;;;;;5.87;5.20;;;;;;;;;;5033517;28;20427;-58
2023/07/17 09:23:44;;;;;;;5.20;4.80;;;;;;;;;;5033234;28;20504;-57
2023/07/17 09:26:13;;;;;;;7.97;5.13;;;;;;;;;;5033411;28;20465;-57
2023/07/17 09:28:45;;;;;;;9.03;5.10;;;;;;;;;;5033249;28;20435;-58
2023/07/17 09:31:11;;;;;;;7.00;5.67;;;;;;;;;;5033524;28;20824;-58
2023/07/17 09:33:37;;;;;;;8.67;7.27;;;;;;;;;;5033301;28;20507;-58
2023/07/17 09:36:03;;;;;;;7.17;5.83;;;;;;;;;;5031990;28;20460;-58
2023/07/17 09:38:32;;;;;;;9.67;5.10;;;;;;;;;;5033035;28;20474;-59
2023/07/17 09:40:58;;;;;;;5.27;4.97;;;;;;;;;;5033270;28;20431;-59
2023/07/17 09:43:31;;;;;;;17.60;12.50;;;;;;;;;;5031623;28;20533;-58
2023/07/17 09:46:01;;;;;;;7.97;6.10;;;;;;;;;;5033209;28;20420;-59
2023/07/17 09:48:27;;;;;;;23.80;14.37;;;;;;;;;;5033220;28;20408;-59
2023/07/17 09:50:58;;;;;;;5.53;5.00;;;;;;;;;;5032960;28;20437;-59
2023/07/17 09:53:24;;;;;;;7.17;6.47;;;;;;;;;;5033128;28;20402;-59
2023/07/17 09:55:52;;;;;;;6.50;5.37;;;;;;;;;;5032830;28;20445;-58
2023/07/17 09:58:18;;;;;;;6.97;5.50;;;;;;;;;;5032720;28;20457;-60
2023/07/17 10:00:44;;;;;;;6.50;4.93;;;;;;;;;;5032970;28;20430;-58
2023/07/17 10:03:17;;;;;;;11.50;5.60;;;;;;;;;;5032576;28;20482;-57
2023/07/17 10:05:43;;;;;;;6.90;5.93;;;;;;;;;;5032776;28;20513;-59
2023/07/17 10:08:10;;;;;;;5.43;4.93;;;;;;;;;;5032548;28;20471;-58
2023/07/17 10:10:36;;;;;;;7.50;5.47;;;;;;;;;;5032853;28;20873;-58
2023/07/17 10:13:03;;;;;;;11.43;5.17;;;;;;;;;;5032574;28;20423;-59
2023/07/17 10:15:29;;;;;;;5.60;5.10;;;;;;;;;;5032561;28;20419;-56
2023/07/17 10:18:01;;;;;;;6.13;5.17;;;;;;;;;;5032384;28;20440;-56
2023/07/17 10:20:31;;;;;;;5.77;4.80;;;;;;;;;;5032523;28;20452;-59
2023/07/17 10:22:57;;;;;;;9.20;5.23;;;;;;;;;;5032239;28;20976;-58
2023/07/17 10:25:23;;;;;;;7.57;4.60;;;;;;;;;;5032360;28;20423;-59
2023/07/17 10:27:52;;;;;;;5.90;4.80;;;;;;;;;;5032215;28;20458;-58
2023/07/17 10:30:25;;;;;;;7.20;5.27;;;;;;;;;;5032013;28;20523;-58
2023/07/17 10:33:10;;;;;;;6.13;5.60;;;;;;;;;;5032189;28;20420;-58
2023/07/17 10:35:57;;;;;;;5.47;4.83;;;;;;;;;;5030739;28;20439;-59
2023/07/17 10:38:22;;;;;;;6.13;5.57;;;;;;;;;;5032555;28;20443;-59
2023/07/17 10:40:51;;;;;;;5.37;4.87;;;;;;;;;;5030751;28;20536;-58
2023/07/17 10:43:18;;;;;;;6.00;5.10;;;;;;;;;;5032014;28;20277;-58
2023/07/17 10:45:45;;;;;;;7.00;5.43;;;;;;;;;;5030796;28;20489;-59
2023/07/17 10:48:11;;;;;;;5.23;4.83;;;;;;;;;;5031955;28;20468;-58
2023/07/17 10:50:38;;;;;;;6.03;5.47;;;;;;;;;;5031822;28;21016;-58
2023/07/17 10:53:09;;;;;;;8.20;5.60;;;;;;;;;;5032132;28;20480;-59
2023/07/17 10:55:36;;;;;;;8.63;5.17;;;;;;;;;;5034841;28;20780;-59
2023/07/17 10:58:02;;;;;;;8.83;5.83;;;;;;;;;;5036294;28;20477;-58
2023/07/17 11:00:28;;;;;;;5.27;4.87;;;;;;;;;;5036252;28;20439;-58
2023/07/17 11:02:58;;;;;;;5.53;4.37;;;;;;;;;;5035998;28;20551;-58
2023/07/17 11:05:24;;;;;;;8.90;5.07;;;;;;;;;;5036122;28;20412;-59
2023/07/17 11:07:50;;;;;;;4.97;4.57;;;;;;;;;;5036061;28;20422;-59
2023/07/17 11:10:16;;;;;;;9.00;5.30;;;;;;;;;;5036299;28;20422;-58
2023/07/17 11:12:43;;;;;;;9.60;5.10;;;;;;;;;;5035875;28;20961;-59
2023/07/17 11:15:17;;;;;;;6.07;4.67;;;;;;;;;;5036115;28;20431;-59
2023/07/17 11:17:43;;;;;;;5.20;4.70;;;;;;;;;;5036004;28;20400;-59
2023/07/17 11:20:11;;;;;;;7.67;5.50;;;;;;;;;;5035577;28;20439;-59
2023/07/17 11:22:40;;;;;;;6.67;5.03;;;;;;;;;;5035413;28;20985;-59
2023/07/17 11:25:07;;;;;;;12.23;4.83;;;;;;;;;;5035306;28;20419;-59
2023/07/17 11:27:33;;;;;;;5.40;4.90;;;;;;;;;;5035633;28;20415;-58
2023/07/17 11:29:59;;;;;;;6.37;4.80;;;;;;;;;;5035429;28;20870;-58
2023/07/17 11:32:27;;;;;;;9.13;5.20;;;;;;;;;;5035447;28;20481;-58
2023/07/17 11:34:54;;;;;;;6.80;5.00;;;;;;;;;;5035532;28;20408;-58
2023/07/17 11:37:29;;;;;;;4.70;4.40;;;;;;;;;;5035026;28;20416;-58
2023/07/17 11:39:56;;;;;;;7.70;5.10;;;;;;;;;;5034484;28;20442;-58
2023/07/17 11:42:22;;;;;;;5.20;4.70;;;;;;;;;;5034460;28;20483;-59
2023/07/17 11:44:57;;;;;;;5.97;4.40;;;;;;;;;;5035349;28;20417;-57
2023/07/17 11:47:26;;;;;;;7.33;5.20;;;;;;;;;;5034740;28;20961;-58
2023/07/17 11:49:53;;;;;;;10.00;4.60;;;;;;;;;;5033226;28;20526;-58
2023/07/17 11:52:22;;;;;;;6.07;4.77;;;;;;;;;;5034976;28;20434;-58
2023/07/17 11:54:48;;;;;;;4.77;4.47;;;;;;;;;;5034900;28;20481;-58
2023/07/17 11:57:16;;;;;;;4.87;4.47;;;;;;;;;;5034072;28;20479;-58
2023/07/17 11:59:46;;;;;;;6.60;4.63;;;;;;;;;;5033926;28;20455;-59
2023/07/17 12:02:12;;;;;;;5.40;4.93;;;;;;;;;;5034669;28;20464;-58
2023/07/17 12:04:41;;;;;;;6.83;4.73;;;;;;;;;;5034158;28;20462;-58
2023/07/17 12:07:18;;;;;;;7.13;4.67;;;;;;;;;;5034970;28;20463;-58
2023/07/17 12:09:45;;;;;;;4.93;4.40;;;;;;;;;;5033213;28;20438;-58
2023/07/17 12:12:13;;;;;;;8.10;4.93;;;;;;;;;;5034466;28;20467;-58
2023/07/17 12:14:41;;;;;;;7.37;4.83;;;;;;;;;;5034390;28;20419;-58
2023/07/17 12:17:08;;;;;;;11.90;4.73;;;;;;;;;;5034425;28;20470;-58
2023/07/17 12:19:34;;;;;;;6.00;4.80;;;;;;;;;;5034200;28;20456;-58
2023/07/17 12:22:00;;;;;;;5.50;5.00;;;;;;;;;;5034150;28;20403;-58
2023/07/17 12:24:26;;;;;;;7.80;5.27;;;;;;;;;;5034342;28;20399;-58
2023/07/17 12:26:52;;;;;;;5.20;4.70;;;;;;;;;;5034087;28;20915;-58
2023/07/17 12:29:21;;;;;;;8.00;4.87;;;;;;;;;;5034036;28;20432;-58
2023/07/17 12:31:47;;;;;;;5.03;4.50;;;;;;;;;;5033961;28;20729;-58
2023/07/17 12:34:13;;;;;;;5.30;4.60;;;;;;;;;;5033864;28;20412;-58
2023/07/17 12:36:39;;;;;;;6.47;4.30;;;;;;;;;;5034073;28;20481;-58
2023/07/17 12:39:12;;;;;;;7.30;4.50;;;;;;;;;;5034002;28;20494;-57
2023/07/17 12:41:40;;;;;;;6.07;4.20;;;;;;;;;;5034010;28;20466;-58
2023/07/17 12:44:06;;;;;;;4.43;4.03;;;;;;;;;;5033728;28;20467;-58
2023/07/17 12:46:32;;;;;;;6.33;5.40;;;;;;;;;;5033744;28;20561;-58
2023/07/17 12:48:58;;;;;;;10.80;4.50;;;;;;;;;;5033976;28;20458;-58
2023/07/17 12:51:27;;;;;;;4.43;4.07;;;;;;;;;;5033666;28;20495;-58
2023/07/17 12:53:53;;;;;;;4.97;4.57;;;;;;;;;;5033863;28;20436;-58
2023/07/17 12:56:19;;;;;;;6.27;4.60;;;;;;;;;;5033961;28;20415;-59
2023/07/17 12:58:45;;;;;;;12.00;9.23;;;;;;;;;;5033699;28;20408;-58
2023/07/17 13:01:14;;;;;;;4.40;4.03;;;;;;;;;;5033696;28;20412;-58
2023/07/17 13:03:40;;;;;;;6.80;4.90;;;;;;;;;;5033349;28;20475;-58
2023/07/17 13:06:06;;;;;;;7.77;5.07;;;;;;;;;;5033572;28;20477;-58
2023/07/17 13:08:31;;;;;;;5.50;5.00;;;;;;;;;;5033060;28;20418;-58
2023/07/17 13:10:57;;;;;;;12.03;4.20;;;;;;;;;;5033158;28;20431;-58
2023/07/17 13:13:23;;;;;;;9.50;4.33;;;;;;;;;;5033336;28;20416;-58
2023/07/17 13:15:49;;;;;;;5.00;4.50;;;;;;;;;;5033531;28;20407;-58
2023/07/17 13:18:15;;;;;;;4.50;4.20;;;;;;;;;;5032568;28;20443;-58
2023/07/17 13:20:41;;;;;;;4.90;4.60;;;;;;;;;;5032075;28;20511;-58
2023/07/17 13:23:07;;;;;;;4.90;4.30;;;;;;;;;;5033008;28;20467;-58
2023/07/17 13:25:33;;;;;;;4.70;4.30;;;;;;;;;;5032779;28;20849;-58
2023/07/17 13:27:59;;;;;;;6.10;5.13;;;;;;;;;;5031442;28;20424;-57
2023/07/17 13:30:25;;;;;;;6.33;4.63;;;;;;;;;;5032508;28;20435;-57
2023/07/17 13:32:51;;;;;;;5.07;4.67;;;;;;;;;;5032809;28;20424;-58
2023/07/17 13:35:17;;;;;;;4.77;4.47;;;;;;;;;;5032745;28;20419;-58
2023/07/17 13:37:46;;;;;;;4.53;4.23;;;;;;;;;;5032908;28;20485;-58
2023/07/17 13:40:15;;;;;;;6.50;4.60;;;;;;;;;;5031585;28;20927;-59
2023/07/17 13:42:41;;;;;;;5.23;4.70;;;;;;;;;;5032723;28;20471;-58
2023/07/17 13:45:07;;;;;;;5.53;5.07;;;;;;;;;;5032690;28;20490;-58
2023/07/17 13:47:33;;;;;;;6.47;4.57;;;;;;;;;;5031604;28;20823;-58
2023/07/17 13:49:59;;;;;;;10.40;4.70;;;;;;;;;;5032933;28;20426;-58
2023/07/17 13:52:28;;;;;;;5.47;4.93;;;;;;;;;;5032946;28;20436;-58
2023/07/17 13:54:55;;;;;;;14.93;5.17;;;;;;;;;;5032538;28;20799;-57
2023/07/17 13:57:21;;;;;;;4.53;4.13;;;;;;;;;;5032729;28;20482;-58
2023/07/17 13:59:46;;;;;;;4.80;4.50;;;;;;;;;;5032452;28;20915;-58
2023/07/17 14:02:15;;;;;;;5.47;4.53;;;;;;;;;;5032538;28;20456;-58
2023/07/17 14:04:41;;;;;;;5.40;4.60;;;;;;;;;;5032375;28;20427;-58
2023/07/17 14:07:08;;;;;;;5.80;3.90;;;;;;;;;;5032755;28;20435;-58
2023/07/17 14:09:34;;;;;;;4.77;4.43;;;;;;;;;;5032540;28;20432;-57
2023/07/17 14:12:00;;;;;;;6.00;4.40;;;;;;;;;;5030866;28;20427;-59
2023/07/17 14:14:28;;;;;;;9.67;4.77;;;;;;;;;;5032523;28;20416;-57
2023/07/17 14:16:54;;;;;;;4.73;4.33;;;;;;;;;;5032234;28;20503;-57
2023/07/17 14:19:20;;;;;;;4.70;4.40;;;;;;;;;;5032136;28;20464;-59
2023/07/17 14:21:46;;;;;;;4.47;4.13;;;;;;;;;;5031921;28;20440;-59
2023/07/17 14:24:12;;;;;;;4.77;4.40;;;;;;;;;;5032010;28;20416;-59
2023/07/17 14:26:38;;;;;;;7.77;4.60;;;;;;;;;;5032180;28;20418;-59
2023/07/17 14:29:04;;;;;;;4.43;4.03;;;;;;;;;;5031272;28;20494;-58
2023/07/17 14:31:30;;;;;;;4.43;4.00;;;;;;;;;;5031953;28;20435;-58
2023/07/17 14:33:56;;;;;;;13.03;5.30;;;;;;;;;;5032100;28;20462;-57
2023/07/17 14:36:22;;;;;;;4.23;3.93;;;;;;;;;;5031561;28;20431;-58
2023/07/17 14:38:48;;;;;;;7.53;4.17;;;;;;;;;;5031774;28;20412;-57
2023/07/17 14:41:14;;;;;;;4.17;3.97;;;;;;;;;;5032213;28;20874;-57